Adamsville, Rhode Island
Current Conditions -  °F | °C
As of 5:53 AM on Friday 31 Oct 2014 (Local Time) from KUUU Reporting Station
Overcast Overcast  
Wind Chill:   Ceiling: 5000
Heat Index:   Visibility: 10mi
Dew Point:   Wind: 8mph
Humidity: 77%   Direction: 30°NNE
Pressure: 30"   Gusts: NA
Location:  41.55°N, 71.13°W
Report Text: KUUU 310953Z AUTO 03007KT 10SM OVC050 08/04 A3000 RMK AO2 SLP156 T00830044
Loading
Personal Weather Stations






























Interactive Weather Map
Tropical Storm Tracking
New forecast layout! Learn more

10-Day Weather Forecast

Advertisements
Track Severe Weather on mobile